sensor_id;sensor_type;location;lat;lon;timestamp;P1;durP1;ratioP1;P2;durP2;ratioP2
77449;SDS011;66536;53.150;18.172;2023-04-08T00:02:25;50.20;;;23.90;;
77449;SDS011;66536;53.150;18.172;2023-04-08T00:05:12;44.60;;;23.60;;
77449;SDS011;66536;53.150;18.172;2023-04-08T00:07:41;44.60;;;23.50;;
77449;SDS011;66536;53.150;18.172;2023-04-08T00:10:41;43.50;;;22.80;;
77449;SDS011;66536;53.150;18.172;2023-04-08T00:13:33;43.20;;;22.30;;
77449;SDS011;66536;53.150;18.172;2023-04-08T00:16:27;46.20;;;23.80;;
77449;SDS011;66536;53.150;18.172;2023-04-08T00:20:13;30.90;;;15.30;;
77449;SDS011;66536;53.150;18.172;2023-04-08T00:28:17;62.20;;;30.20;;
77449;SDS011;66536;53.150;18.172;2023-04-08T00:31:04;43.70;;;19.80;;
77449;SDS011;66536;53.150;18.172;2023-04-08T00:38:42;46.80;;;25.70;;
77449;SDS011;66536;53.150;18.172;2023-04-08T00:56:00;44.40;;;21.30;;
77449;SDS011;66536;53.150;18.172;2023-04-08T00:59:20;37.80;;;20.60;;
77449;SDS011;66536;53.150;18.172;2023-04-08T01:03:13;48.70;;;23.20;;
77449;SDS011;66536;53.150;18.172;2023-04-08T01:06:48;46.00;;;21.40;;
77449;SDS011;66536;53.150;18.172;2023-04-08T01:10:44;33.10;;;18.10;;
77449;SDS011;66536;53.150;18.172;2023-04-08T01:14:41;32.90;;;18.00;;
77449;SDS011;66536;53.150;18.172;2023-04-08T01:18:43;37.10;;;17.90;;
77449;SDS011;66536;53.150;18.172;2023-04-08T01:23:28;34.20;;;17.40;;
77449;SDS011;66536;53.150;18.172;2023-04-08T01:38:13;36.00;;;17.80;;
77449;SDS011;66536;53.150;18.172;2023-04-08T01:42:00;32.40;;;16.60;;
77449;SDS011;66536;53.150;18.172;2023-04-08T01:49:52;25.30;;;13.20;;
77449;SDS011;66536;53.150;18.172;2023-04-08T01:54:45;21.20;;;11.80;;
77449;SDS011;66536;53.150;18.172;2023-04-08T01:57:55;20.10;;;11.00;;
77449;SDS011;66536;53.150;18.172;2023-04-08T02:01:09;20.50;;;11.00;;
77449;SDS011;66536;53.150;18.172;2023-04-08T02:04:26;23.70;;;12.80;;
77449;SDS011;66536;53.150;18.172;2023-04-08T02:08:47;26.30;;;14.40;;
77449;SDS011;66536;53.150;18.172;2023-04-08T02:11:47;37.60;;;17.80;;
77449;SDS011;66536;53.150;18.172;2023-04-08T02:14:29;33.30;;;17.50;;
77449;SDS011;66536;53.150;18.172;2023-04-08T02:17:09;27.90;;;14.90;;
77449;SDS011;66536;53.150;18.172;2023-04-08T02:20:10;33.80;;;17.80;;
77449;SDS011;66536;53.150;18.172;2023-04-08T02:23:16;39.90;;;19.70;;
77449;SDS011;66536;53.150;18.172;2023-04-08T02:26:17;38.00;;;19.80;;
77449;SDS011;66536;53.150;18.172;2023-04-08T02:28:56;52.30;;;22.80;;
77449;SDS011;66536;53.150;18.172;2023-04-08T02:31:35;34.40;;;17.60;;
77449;SDS011;66536;53.150;18.172;2023-04-08T02:34:18;36.00;;;19.20;;
77449;SDS011;66536;53.150;18.172;2023-04-08T02:37:01;68.90;;;39.80;;
77449;SDS011;66536;53.150;18.172;2023-04-08T02:39:51;54.80;;;24.40;;
77449;SDS011;66536;53.150;18.172;2023-04-08T02:43:00;41.80;;;21.40;;
77449;SDS011;66536;53.150;18.172;2023-04-08T02:46:13;48.20;;;23.60;;
77449;SDS011;66536;53.150;18.172;2023-04-08T02:49:05;31.90;;;17.00;;
77449;SDS011;66536;53.150;18.172;2023-04-08T02:52:15;31.60;;;16.80;;
77449;SDS011;66536;53.150;18.172;2023-04-08T02:56:08;31.80;;;16.40;;
77449;SDS011;66536;53.150;18.172;2023-04-08T02:59:46;37.40;;;18.00;;
77449;SDS011;66536;53.150;18.172;2023-04-08T03:03:16;33.20;;;16.80;;
77449;SDS011;66536;53.150;18.172;2023-04-08T03:06:46;30.40;;;17.10;;
77449;SDS011;66536;53.150;18.172;2023-04-08T03:09:57;32.80;;;16.70;;
77449;SDS011;66536;53.150;18.172;2023-04-08T03:17:21;31.40;;;17.20;;
77449;SDS011;66536;53.150;18.172;2023-04-08T03:25:44;39.00;;;20.30;;
77449;SDS011;66536;53.150;18.172;2023-04-08T03:33:55;30.50;;;15.70;;
77449;SDS011;66536;53.150;18.172;2023-04-08T03:36:48;38.10;;;17.30;;
77449;SDS011;66536;53.150;18.172;2023-04-08T03:54:16;24.90;;;13.80;;
77449;SDS011;66536;53.150;18.172;2023-04-08T03:59:04;27.00;;;14.80;;
77449;SDS011;66536;53.150;18.172;2023-04-08T04:02:17;31.10;;;16.40;;
77449;SDS011;66536;53.150;18.172;2023-04-08T04:05:08;31.90;;;15.30;;
77449;SDS011;66536;53.150;18.172;2023-04-08T04:07:54;29.40;;;15.30;;
77449;SDS011;66536;53.150;18.172;2023-04-08T04:11:00;29.10;;;14.50;;
77449;SDS011;66536;53.150;18.172;2023-04-08T04:14:40;28.20;;;16.10;;
77449;SDS011;66536;53.150;18.172;2023-04-08T04:17:41;27.90;;;14.60;;
77449;SDS011;66536;53.150;18.172;2023-04-08T04:20:48;28.60;;;16.00;;
77449;SDS011;66536;53.150;18.172;2023-04-08T04:23:57;35.30;;;17.10;;
77449;SDS011;66536;53.150;18.172;2023-04-08T04:27:17;27.50;;;14.90;;
77449;SDS011;66536;53.150;18.172;2023-04-08T04:29:54;27.10;;;14.50;;
77449;SDS011;66536;53.150;18.172;2023-04-08T04:32:20;23.90;;;14.20;;
77449;SDS011;66536;53.150;18.172;2023-04-08T04:34:46;25.80;;;14.90;;
77449;SDS011;66536;53.150;18.172;2023-04-08T04:37:12;23.70;;;13.20;;
77449;SDS011;66536;53.150;18.172;2023-04-08T04:39:38;26.40;;;14.20;;
77449;SDS011;66536;53.150;18.172;2023-04-08T04:42:04;25.50;;;13.90;;
77449;SDS011;66536;53.150;18.172;2023-04-08T04:44:50;47.20;;;21.70;;
77449;SDS011;66536;53.150;18.172;2023-04-08T04:47:19;61.80;;;27.00;;
77449;SDS011;66536;53.150;18.172;2023-04-08T04:49:45;64.50;;;29.10;;
77449;SDS011;66536;53.150;18.172;2023-04-08T04:57:41;27.10;;;14.50;;
77449;SDS011;66536;53.150;18.172;2023-04-08T05:00:56;51.50;;;26.80;;
77449;SDS011;66536;53.150;18.172;2023-04-08T05:03:29;55.20;;;27.20;;
77449;SDS011;66536;53.150;18.172;2023-04-08T05:06:03;27.60;;;15.20;;
77449;SDS011;66536;53.150;18.172;2023-04-08T05:09:40;24.20;;;13.40;;
77449;SDS011;66536;53.150;18.172;2023-04-08T05:14:01;18.50;;;10.10;;
77449;SDS011;66536;53.150;18.172;2023-04-08T05:18:14;21.70;;;10.50;;
77449;SDS011;66536;53.150;18.172;2023-04-08T05:20:50;55.10;;;24.00;;
77449;SDS011;66536;53.150;18.172;2023-04-08T05:23:33;30.10;;;13.60;;
77449;SDS011;66536;53.150;18.172;2023-04-08T05:26:39;29.40;;;16.10;;
77449;SDS011;66536;53.150;18.172;2023-04-08T05:29:15;15.10;;;9.50;;
77449;SDS011;66536;53.150;18.172;2023-04-08T05:31:43;16.50;;;9.70;;
77449;SDS011;66536;53.150;18.172;2023-04-08T05:34:10;14.90;;;9.70;;
77449;SDS011;66536;53.150;18.172;2023-04-08T05:36:36;15.60;;;7.90;;
77449;SDS011;66536;53.150;18.172;2023-04-08T05:39:04;9.20;;;5.10;;
77449;SDS011;66536;53.150;18.172;2023-04-08T05:41:30;20.20;;;11.40;;
77449;SDS011;66536;53.150;18.172;2023-04-08T05:43:56;18.00;;;10.10;;
77449;SDS011;66536;53.150;18.172;2023-04-08T05:46:22;16.40;;;9.10;;
77449;SDS011;66536;53.150;18.172;2023-04-08T05:48:48;15.50;;;10.10;;
77449;SDS011;66536;53.150;18.172;2023-04-08T05:51:16;14.60;;;9.50;;
77449;SDS011;66536;53.150;18.172;2023-04-08T05:53:45;19.10;;;10.50;;
77449;SDS011;66536;53.150;18.172;2023-04-08T05:56:11;15.50;;;8.00;;
77449;SDS011;66536;53.150;18.172;2023-04-08T05:58:37;13.60;;;7.50;;
77449;SDS011;66536;53.150;18.172;2023-04-08T06:01:05;19.00;;;11.70;;
77449;SDS011;66536;53.150;18.172;2023-04-08T06:03:49;22.00;;;12.80;;
77449;SDS011;66536;53.150;18.172;2023-04-08T06:06:38;21.20;;;13.30;;
77449;SDS011;66536;53.150;18.172;2023-04-08T06:09:24;20.20;;;10.70;;
77449;SDS011;66536;53.150;18.172;2023-04-08T06:12:19;19.00;;;11.40;;
77449;SDS011;66536;53.150;18.172;2023-04-08T06:14:53;22.80;;;12.10;;
77449;SDS011;66536;53.150;18.172;2023-04-08T06:17:25;20.40;;;11.20;;
77449;SDS011;66536;53.150;18.172;2023-04-08T06:20:02;18.00;;;9.80;;
77449;SDS011;66536;53.150;18.172;2023-04-08T06:22:39;19.90;;;10.50;;
77449;SDS011;66536;53.150;18.172;2023-04-08T06:25:38;20.30;;;11.20;;
77449;SDS011;66536;53.150;18.172;2023-04-08T06:28:35;19.90;;;10.80;;
77449;SDS011;66536;53.150;18.172;2023-04-08T06:31:11;22.50;;;10.80;;
77449;SDS011;66536;53.150;18.172;2023-04-08T06:34:45;17.10;;;10.40;;
77449;SDS011;66536;53.150;18.172;2023-04-08T06:37:42;18.80;;;10.70;;
77449;SDS011;66536;53.150;18.172;2023-04-08T06:41:21;17.90;;;10.10;;
77449;SDS011;66536;53.150;18.172;2023-04-08T06:45:03;16.30;;;10.20;;
77449;SDS011;66536;53.150;18.172;2023-04-08T07:04:59;15.40;;;10.50;;
77449;SDS011;66536;53.150;18.172;2023-04-08T07:07:32;16.80;;;10.90;;
77449;SDS011;66536;53.150;18.172;2023-04-08T07:10:06;15.00;;;10.20;;
77449;SDS011;66536;53.150;18.172;2023-04-08T07:12:49;17.50;;;11.10;;
77449;SDS011;66536;53.150;18.172;2023-04-08T07:15:50;17.50;;;10.80;;
77449;SDS011;66536;53.150;18.172;2023-04-08T07:19:54;18.40;;;11.70;;
77449;SDS011;66536;53.150;18.172;2023-04-08T07:22:38;14.10;;;9.50;;
77449;SDS011;66536;53.150;18.172;2023-04-08T07:25:10;18.60;;;11.70;;
77449;SDS011;66536;53.150;18.172;2023-04-08T07:28:09;17.20;;;10.80;;
77449;SDS011;66536;53.150;18.172;2023-04-08T07:30:38;17.00;;;10.80;;
77449;SDS011;66536;53.150;18.172;2023-04-08T07:33:07;19.10;;;11.20;;
77449;SDS011;66536;53.150;18.172;2023-04-08T07:36:00;14.60;;;10.30;;
77449;SDS011;66536;53.150;18.172;2023-04-08T07:38:38;18.80;;;12.50;;
77449;SDS011;66536;53.150;18.172;2023-04-08T07:45:11;15.40;;;10.30;;
77449;SDS011;66536;53.150;18.172;2023-04-08T07:49:39;15.80;;;9.80;;
77449;SDS011;66536;53.150;18.172;2023-04-08T07:58:06;14.30;;;9.50;;
77449;SDS011;66536;53.150;18.172;2023-04-08T12:17:27;11.50;;;8.70;;
77449;SDS011;66536;53.150;18.172;2023-04-08T12:20:48;13.00;;;9.70;;
77449;SDS011;66536;53.150;18.172;2023-04-08T14:47:36;10.30;;;7.70;;
77449;SDS011;66536;53.150;18.172;2023-04-08T14:50:24;9.70;;;7.20;;
77449;SDS011;66536;53.150;18.172;2023-04-08T14:54:09;10.90;;;7.60;;
77449;SDS011;66536;53.150;18.172;2023-04-08T14:56:40;8.20;;;6.70;;
77449;SDS011;66536;53.150;18.172;2023-04-08T15:01:02;11.60;;;8.20;;
77449;SDS011;66536;53.150;18.172;2023-04-08T15:04:41;9.80;;;7.30;;
77449;SDS011;66536;53.150;18.172;2023-04-08T15:07:17;9.50;;;7.50;;
77449;SDS011;66536;53.150;18.172;2023-04-08T15:10:30;28.80;;;26.30;;
77449;SDS011;66536;53.150;18.172;2023-04-08T15:14:28;10.80;;;8.10;;
77449;SDS011;66536;53.150;18.172;2023-04-08T15:18:17;11.90;;;9.60;;
77449;SDS011;66536;53.150;18.172;2023-04-08T15:24:57;8.40;;;6.80;;
77449;SDS011;66536;53.150;18.172;2023-04-08T15:27:41;11.20;;;11.30;;
77449;SDS011;66536;53.150;18.172;2023-04-08T16:01:33;13.10;;;10.60;;
77449;SDS011;66536;53.150;18.172;2023-04-08T16:29:28;10.70;;;8.90;;
77449;SDS011;66536;53.150;18.172;2023-04-08T16:32:49;9.00;;;7.10;;
77449;SDS011;66536;53.150;18.172;2023-04-08T21:40:55;59.80;;;26.10;;
